Time;durP1;ratioP1;P1;durP2;ratioP2;P2;SDS_P1;SDS_P2;PMS_P1;PMS_P2;Temp;Humidity;BMP_temperature;BMP_pressure;BME280_temperature;BME280_humidity;BME280_pressure;Samples;Min_cycle;Max_cycle;Signal;HPM_P1;HPM_P2
2022/03/02 00:01:20;;;;;;;18.65;11.15;;;7.20;91.30;;;;;;4973013;28;20026;-80
2022/03/02 00:03:46;;;;;;;20.90;11.82;;;7.20;91.30;;;;;;4944773;28;20038;-79
2022/03/02 00:06:13;;;;;;;18.83;11.88;;;7.10;91.30;;;;;;4946992;28;20038;-79
2022/03/02 00:08:40;;;;;;;17.10;10.60;;;7.10;91.40;;;;;;4958466;28;20037;-78
2022/03/02 00:11:07;;;;;;;16.98;10.20;;;7.10;91.40;;;;;;4954998;28;20023;-79
2022/03/02 00:13:33;;;;;;;18.17;10.52;;;7.10;91.40;;;;;;4971298;28;20045;-79
2022/03/02 00:16:00;;;;;;;18.10;11.10;;;7.10;91.50;;;;;;4971523;28;20038;-78
2022/03/02 00:18:26;;;;;;;18.48;11.55;;;7.10;91.50;;;;;;4942070;28;20038;-79
2022/03/02 00:20:53;;;;;;;20.02;11.15;;;7.10;91.50;;;;;;4970024;28;20045;-78
2022/03/02 00:23:20;;;;;;;18.17;10.68;;;7.00;91.50;;;;;;4954232;28;20383;-78
2022/03/02 00:25:46;;;;;;;19.90;11.13;;;7.00;91.60;;;;;;4943320;28;20152;-78
2022/03/02 00:28:13;;;;;;;18.58;11.05;;;7.00;91.60;;;;;;4942512;28;20046;-79
2022/03/02 00:30:41;;;;;;;20.13;12.15;;;7.00;91.60;;;;;;4957078;28;20054;-79
2022/03/02 00:33:08;;;;;;;23.95;12.60;;;7.10;91.70;;;;;;4957952;28;20382;-79
2022/03/02 00:35:34;;;;;;;19.85;12.27;;;7.00;91.80;;;;;;4970760;28;20478;-79
2022/03/02 00:38:03;;;;;;;19.63;12.25;;;7.00;91.80;;;;;;4981716;28;21635;-79
2022/03/02 00:40:30;;;;;;;19.02;11.70;;;7.00;91.80;;;;;;4968786;28;20026;-78
2022/03/02 00:42:56;;;;;;;21.45;11.88;;;7.10;91.80;;;;;;4940325;28;20034;-78
2022/03/02 00:45:25;;;;;;;19.88;12.02;;;7.00;91.80;;;;;;4951483;28;20050;-79
2022/03/02 00:47:52;;;;;;;18.02;11.32;;;7.00;91.90;;;;;;4949644;28;20510;-79
2022/03/02 00:50:19;;;;;;;19.50;12.65;;;7.00;91.90;;;;;;4972908;28;20462;-78
2022/03/02 00:52:47;;;;;;;20.00;12.38;;;6.90;91.90;;;;;;4971401;28;20038;-78
2022/03/02 00:55:14;;;;;;;17.02;11.50;;;6.90;92.00;;;;;;4959593;28;20038;-79
2022/03/02 00:57:40;;;;;;;20.42;12.35;;;6.90;92.00;;;;;;4942688;28;20047;-78
2022/03/02 01:00:08;;;;;;;18.38;11.82;;;6.90;92.10;;;;;;4957200;28;20038;-78
2022/03/02 01:02:35;;;;;;;22.27;12.27;;;6.90;92.10;;;;;;4953551;28;20390;-78
2022/03/02 01:05:02;;;;;;;17.85;10.63;;;6.90;92.20;;;;;;4957353;28;20490;-79
2022/03/02 01:07:29;;;;;;;18.35;11.32;;;6.80;92.20;;;;;;4984441;28;20469;-79
2022/03/02 01:09:55;;;;;;;19.00;11.43;;;6.80;92.30;;;;;;4973983;28;20038;-78
2022/03/02 01:12:22;;;;;;;21.52;12.07;;;6.80;92.30;;;;;;4974410;28;20030;-78
2022/03/02 01:14:49;;;;;;;10.93;7.07;;;6.70;92.50;;;;;;4971280;28;20046;-79
2022/03/02 01:17:16;;;;;;;18.10;10.73;;;6.70;92.60;;;;;;4954551;28;20042;-79
2022/03/02 01:19:42;;;;;;;21.73;12.05;;;6.70;92.60;;;;;;4970837;28;20414;-79
2022/03/02 01:22:09;;;;;;;16.60;10.93;;;6.70;92.70;;;;;;4945815;28;20401;-79
2022/03/02 01:24:36;;;;;;;17.60;11.45;;;6.60;92.70;;;;;;4984167;28;20504;-78
2022/03/02 01:27:03;;;;;;;19.08;10.77;;;6.60;92.80;;;;;;4954929;28;20022;-79
2022/03/02 01:29:30;;;;;;;18.95;11.32;;;6.60;92.90;;;;;;4954434;28;20486;-79
2022/03/02 01:32:05;;;;;;;19.45;12.13;;;6.60;93.00;;;;;;4937390;28;20481;-79
2022/03/02 01:35:03;;;;;;;19.30;11.68;;;6.50;93.00;;;;;;4992123;28;20386;-81
2022/03/02 01:37:32;;;;;;;20.58;11.88;;;6.50;93.10;;;;;;4955922;28;20037;-81
2022/03/02 01:40:09;;;;;;;19.73;12.45;;;6.50;93.10;;;;;;4953545;28;20478;-82
2022/03/02 01:42:51;;;;;;;23.50;13.25;;;6.50;93.10;;;;;;4956718;28;20038;-82
2022/03/02 01:45:41;;;;;;;20.52;12.95;;;6.50;93.20;;;;;;4983454;28;21049;-82
2022/03/02 01:48:09;;;;;;;20.27;12.48;;;6.40;93.30;;;;;;4970153;28;20055;-83
2022/03/02 01:50:45;;;;;;;22.60;14.15;;;6.40;93.30;;;;;;4987462;28;20029;-82
2022/03/02 01:53:12;;;;;;;21.02;14.32;;;6.40;93.40;;;;;;4968902;28;20490;-82
2022/03/02 01:55:55;;;;;;;25.65;14.57;;;6.40;93.60;;;;;;4967689;28;20044;-82
2022/03/02 01:58:28;;;;;;;25.75;15.45;;;6.30;93.70;;;;;;4972659;28;20037;-82
2022/03/02 02:01:01;;;;;;;22.73;14.50;;;6.30;93.80;;;;;;4971099;28;20046;-79
2022/03/02 02:04:07;;;;;;;20.05;13.68;;;6.30;93.80;;;;;;4927924;28;20063;-79
2022/03/02 02:06:50;;;;;;;20.23;13.50;;;6.30;93.90;;;;;;4928464;29;20055;-79
2022/03/02 02:09:47;;;;;;;21.83;13.27;;;6.30;93.90;;;;;;4910774;29;20043;-80
2022/03/02 02:12:15;;;;;;;19.83;12.98;;;6.20;94.00;;;;;;4928111;29;20043;-79
2022/03/02 02:14:42;;;;;;;22.33;13.82;;;6.20;94.00;;;;;;4926537;29;20052;-79
2022/03/02 02:17:11;;;;;;;20.60;13.75;;;6.10;94.10;;;;;;4928542;29;20340;-79
2022/03/02 02:19:37;;;;;;;21.63;13.88;;;6.00;94.20;;;;;;4914183;29;20039;-78
2022/03/02 02:22:04;;;;;;;25.73;14.30;;;6.00;94.30;;;;;;4912612;29;20146;-79
2022/03/02 02:24:31;;;;;;;23.10;14.05;;;5.90;94.60;;;;;;4926153;29;20047;-79
2022/03/02 02:26:58;;;;;;;20.33;13.38;;;5.90;94.50;;;;;;4900397;29;20472;-78
2022/03/02 02:29:25;;;;;;;18.45;11.95;;;5.90;94.50;;;;;;4924845;29;20424;-79
2022/03/02 02:31:52;;;;;;;21.02;13.07;;;5.90;94.60;;;;;;4881882;29;20154;-81
2022/03/02 02:34:19;;;;;;;20.60;13.25;;;5.90;94.70;;;;;;4923368;28;20043;-81
2022/03/02 02:36:46;;;;;;;19.90;12.43;;;5.90;94.80;;;;;;4975419;28;20026;-79
2022/03/02 02:39:13;;;;;;;23.08;13.82;;;5.90;94.90;;;;;;4971363;28;20030;-79
2022/03/02 02:41:39;;;;;;;22.58;12.93;;;5.90;94.90;;;;;;4977686;28;20054;-79
2022/03/02 02:44:06;;;;;;;21.98;14.25;;;5.90;95.00;;;;;;4985370;28;20352;-79
2022/03/02 02:46:33;;;;;;;25.63;14.32;;;5.90;95.00;;;;;;4972371;28;20101;-79
2022/03/02 02:48:59;;;;;;;20.73;13.85;;;6.00;95.10;;;;;;4971244;28;20069;-79
2022/03/02 02:51:26;;;;;;;25.35;15.07;;;6.00;95.10;;;;;;4944020;28;20026;-79
2022/03/02 02:53:52;;;;;;;25.67;15.30;;;6.00;95.10;;;;;;4975439;28;20445;-79
2022/03/02 02:56:20;;;;;;;24.17;13.88;;;6.00;95.10;;;;;;4961244;28;20030;-79
2022/03/02 02:58:46;;;;;;;18.60;11.45;;;6.10;95.20;;;;;;4957028;28;20046;-79
2022/03/02 03:01:13;;;;;;;26.45;16.13;;;6.00;95.20;;;;;;4959266;28;20057;-79
2022/03/02 03:03:39;;;;;;;23.05;14.75;;;6.00;95.30;;;;;;4974824;28;20405;-79
2022/03/02 03:06:06;;;;;;;24.25;14.93;;;6.10;95.30;;;;;;4940626;28;20038;-79
2022/03/02 03:08:32;;;;;;;29.75;17.92;;;6.10;95.40;;;;;;4959179;28;20034;-79
2022/03/02 03:10:59;;;;;;;28.58;16.25;;;6.10;95.40;;;;;;4973497;28;20034;-79
2022/03/02 03:13:25;;;;;;;25.27;15.77;;;6.10;95.50;;;;;;4956292;28;20039;-79
2022/03/02 03:15:52;;;;;;;21.63;13.73;;;6.20;95.50;;;;;;4958421;28;20525;-78
2022/03/02 03:18:18;;;;;;;27.50;16.00;;;6.20;95.50;;;;;;4954424;28;20062;-79
2022/03/02 03:20:45;;;;;;;25.33;16.15;;;6.20;95.50;;;;;;4988236;28;20034;-79
2022/03/02 03:23:11;;;;;;;23.75;14.77;;;6.10;95.40;;;;;;4954978;28;20042;-79
2022/03/02 03:25:38;;;;;;;21.00;12.55;;;6.20;95.40;;;;;;4955769;28;20026;-79
2022/03/02 03:28:06;;;;;;;24.60;14.27;;;6.20;95.40;;;;;;4960778;28;20034;-79
2022/03/02 03:30:32;;;;;;;25.30;15.60;;;6.20;95.40;;;;;;4946661;28;20050;-79
2022/03/02 03:33:02;;;;;;;25.50;14.98;;;6.10;95.40;;;;;;4943242;28;20058;-79
2022/03/02 03:35:28;;;;;;;30.02;16.63;;;6.10;95.50;;;;;;4959141;28;20398;-79
2022/03/02 03:37:55;;;;;;;27.63;16.50;;;6.00;95.60;;;;;;4949068;28;20035;-79
2022/03/02 03:40:22;;;;;;;27.42;16.45;;;6.00;95.60;;;;;;4947392;28;20041;-79
2022/03/02 03:42:50;;;;;;;28.85;17.48;;;5.90;95.70;;;;;;4943269;28;21418;-79
2022/03/02 03:45:17;;;;;;;25.60;14.85;;;5.90;95.90;;;;;;4954975;28;20037;-79
2022/03/02 03:47:44;;;;;;;23.40;15.27;;;5.80;95.90;;;;;;4949303;28;20126;-80
2022/03/02 03:50:12;;;;;;;22.95;14.25;;;5.80;95.90;;;;;;4960595;28;20038;-79
2022/03/02 03:52:39;;;;;;;21.57;13.03;;;5.70;96.00;;;;;;4943292;28;20054;-79
2022/03/02 03:55:07;;;;;;;20.75;12.50;;;5.60;96.00;;;;;;4960581;28;20520;-79
2022/03/02 03:57:34;;;;;;;16.83;11.27;;;5.60;96.10;;;;;;4958545;28;20680;-79
2022/03/02 04:00:00;;;;;;;22.47;13.40;;;5.50;96.10;;;;;;4988935;28;20041;-79
2022/03/02 04:02:27;;;;;;;21.33;13.50;;;5.40;96.20;;;;;;4976768;28;20037;-79
2022/03/02 04:04:53;;;;;;;21.95;13.35;;;5.30;96.40;;;;;;4938132;28;20038;-79
2022/03/02 04:07:20;;;;;;;19.63;12.02;;;5.30;96.50;;;;;;4940653;28;20034;-79
2022/03/02 04:09:46;;;;;;;22.57;14.53;;;5.20;96.60;;;;;;4958245;28;20049;-79
2022/03/02 04:12:13;;;;;;;25.30;14.73;;;5.10;96.60;;;;;;4957203;28;20030;-79
2022/03/02 04:14:40;;;;;;;17.90;11.93;;;5.10;96.70;;;;;;4956234;28;20030;-79
2022/03/02 04:17:06;;;;;;;19.73;13.13;;;5.10;96.80;;;;;;4977321;28;20045;-79
2022/03/02 04:19:33;;;;;;;19.13;12.37;;;5.10;96.80;;;;;;4955516;28;20045;-78
2022/03/02 04:21:59;;;;;;;21.70;12.57;;;5.00;96.90;;;;;;4971789;28;20031;-78
2022/03/02 04:24:26;;;;;;;19.67;12.80;;;5.00;97.00;;;;;;4969451;28;20053;-79
2022/03/02 04:26:52;;;;;;;21.03;13.33;;;5.00;97.10;;;;;;4972822;28;20038;-79
2022/03/02 04:29:19;;;;;;;22.70;14.13;;;4.90;97.20;;;;;;4984672;28;20050;-79
2022/03/02 04:31:46;;;;;;;20.33;13.50;;;4.90;97.30;;;;;;4953977;28;20498;-79
2022/03/02 04:34:13;;;;;;;24.17;13.33;;;4.90;97.40;;;;;;4961003;28;20046;-79
2022/03/02 04:36:46;;;;;;;24.03;13.27;;;4.80;97.40;;;;;;4956611;28;20053;-80
2022/03/02 04:39:12;;;;;;;;;;;4.80;97.50;;;;;;4970785;28;20038;-79
2022/03/02 04:41:38;;;;;;;20.80;11.83;;;4.80;97.60;;;;;;4944702;28;21134;-79
2022/03/02 04:44:05;;;;;;;19.50;11.40;;;4.70;97.60;;;;;;4959580;28;20038;-79
2022/03/02 04:46:32;;;;;;;19.73;10.70;;;4.70;97.60;;;;;;4972460;28;20046;-79
2022/03/02 04:49:10;;;;;;;20.20;11.27;;;4.70;97.80;;;;;;4953632;28;20434;-79
2022/03/02 04:51:37;;;;;;;16.63;10.50;;;4.70;97.90;;;;;;4985526;28;20037;-79
2022/03/02 04:54:05;;;;;;;21.90;10.93;;;4.70;97.90;;;;;;4947691;28;20027;-79
2022/03/02 04:56:32;;;;;;;19.53;11.80;;;4.60;98.00;;;;;;4960956;28;21583;-79
2022/03/02 04:59:01;;;;;;;21.33;11.93;;;4.50;98.00;;;;;;4955075;28;20370;-79
2022/03/02 05:01:28;;;;;;;19.63;11.60;;;4.50;98.10;;;;;;4943220;28;20053;-79
2022/03/02 05:03:54;;;;;;;16.53;10.77;;;4.50;98.20;;;;;;4957478;28;20034;-79
2022/03/02 05:06:21;;;;;;;20.03;12.30;;;4.40;98.30;;;;;;4955485;28;20045;-79
2022/03/02 05:08:47;;;;;;;22.07;13.33;;;4.40;98.40;;;;;;4952109;28;20049;-79
2022/03/02 05:11:14;;;;;;;19.50;11.63;;;4.40;98.40;;;;;;4986772;28;20026;-79
2022/03/02 05:13:40;;;;;;;22.23;12.80;;;4.40;98.50;;;;;;4952898;28;20050;-80
2022/03/02 05:16:07;;;;;;;21.67;12.67;;;4.30;98.50;;;;;;4971300;28;20870;-79
2022/03/02 05:18:33;;;;;;;17.60;11.67;;;4.40;98.60;;;;;;4939147;28;20058;-79
2022/03/02 05:21:00;;;;;;;21.50;12.80;;;4.30;98.60;;;;;;4937386;28;20049;-78
2022/03/02 05:23:27;;;;;;;19.07;11.60;;;4.30;98.70;;;;;;4938665;28;20050;-79
2022/03/02 05:25:53;;;;;;;23.20;12.60;;;4.30;98.70;;;;;;4968191;28;20031;-80
2022/03/02 05:28:20;;;;;;;23.57;13.30;;;4.30;98.80;;;;;;4951764;28;20022;-78
2022/03/02 05:30:47;;;;;;;20.70;12.10;;;4.30;98.80;;;;;;4970727;28;20047;-84
2022/03/02 05:33:13;;;;;;;20.63;13.30;;;4.20;98.80;;;;;;4955143;28;20038;-78
2022/03/02 05:35:40;;;;;;;42.77;23.73;;;4.20;98.90;;;;;;4957205;28;20042;-79
2022/03/02 05:38:07;;;;;;;34.47;19.23;;;4.10;99.00;;;;;;4954425;28;20034;-78
2022/03/02 05:40:33;;;;;;;32.13;17.77;;;4.10;99.10;;;;;;4965474;28;20038;-78
2022/03/02 05:43:00;;;;;;;24.33;15.13;;;4.00;99.20;;;;;;4939985;28;20051;-80
2022/03/02 05:45:27;;;;;;;66.60;33.13;;;4.00;99.30;;;;;;4936895;28;20038;-78
2022/03/02 05:47:54;;;;;;;32.80;17.90;;;3.90;99.40;;;;;;4958874;28;23103;-77
2022/03/02 05:50:20;;;;;;;27.10;15.53;;;3.90;99.50;;;;;;4957355;28;20030;-81
2022/03/02 05:52:47;;;;;;;24.93;14.63;;;3.80;99.50;;;;;;4969304;28;20049;-81
2022/03/02 05:55:13;;;;;;;24.87;14.77;;;3.80;99.60;;;;;;4942991;28;20039;-78
2022/03/02 05:57:40;;;;;;;23.93;14.37;;;3.80;99.80;;;;;;4985734;28;20045;-78
2022/03/02 06:00:08;;;;;;;23.03;12.00;;;3.70;99.80;;;;;;4969054;28;20015;-78
2022/03/02 06:02:35;;;;;;;15.73;9.83;;;3.70;99.90;;;;;;4951696;28;20053;-77
2022/03/02 06:05:01;;;;;;;21.37;11.63;;;3.60;99.90;;;;;;4967797;28;20407;-78
2022/03/02 06:07:28;;;;;;;20.33;11.07;;;3.60;99.90;;;;;;4967690;28;20390;-78
2022/03/02 06:09:54;;;;;;;18.53;11.23;;;3.60;99.90;;;;;;4986654;28;20041;-78
2022/03/02 06:12:21;;;;;;;22.10;11.60;;;3.50;99.90;;;;;;4968706;28;20034;-77
2022/03/02 06:14:48;;;;;;;21.20;11.47;;;3.50;99.90;;;;;;4985071;28;20033;-78
2022/03/02 06:17:14;;;;;;;24.17;12.87;;;3.50;99.90;;;;;;4968256;28;20034;-79
2022/03/02 06:19:41;;;;;;;24.57;13.80;;;3.50;99.90;;;;;;4966127;28;20054;-78
2022/03/02 06:22:09;;;;;;;23.57;13.90;;;3.50;99.90;;;;;;4966282;28;20038;-78
2022/03/02 06:24:35;;;;;;;23.53;13.50;;;3.50;99.90;;;;;;4951429;28;20038;-78
2022/03/02 06:27:02;;;;;;;20.60;12.00;;;3.50;99.90;;;;;;4987075;28;20030;-78
2022/03/02 06:29:30;;;;;;;20.60;11.97;;;3.40;99.90;;;;;;4950022;28;20109;-78
2022/03/02 06:31:57;;;;;;;16.97;10.40;;;3.40;99.90;;;;;;4954993;28;20042;-78
2022/03/02 06:34:23;;;;;;;21.63;12.33;;;3.40;99.90;;;;;;4973782;28;20037;-78
2022/03/02 06:36:51;;;;;;;20.00;12.27;;;3.50;99.90;;;;;;4969636;28;20591;-78
2022/03/02 06:39:22;;;;;;;24.07;14.47;;;3.50;99.90;;;;;;4967154;28;20473;-78
2022/03/02 06:42:19;;;;;;;23.80;14.40;;;3.50;99.90;;;;;;4942975;28;20035;-78
2022/03/02 06:45:04;;;;;;;22.20;13.40;;;3.60;99.90;;;;;;4988645;28;20038;-78
2022/03/02 06:47:41;;;;;;;26.60;15.47;;;3.60;99.90;;;;;;4935123;28;20031;-78
2022/03/02 06:50:10;;;;;;;25.10;14.57;;;3.70;99.90;;;;;;4968264;28;20037;-78
2022/03/02 06:52:40;;;;;;;26.93;15.40;;;3.80;99.90;;;;;;4982853;28;20506;-78
2022/03/02 06:55:16;;;;;;;25.13;16.13;;;3.80;99.90;;;;;;4968679;28;20035;-78
2022/03/02 06:57:56;;;;;;;25.50;15.60;;;3.90;99.90;;;;;;4975385;28;20041;-78
2022/03/02 07:00:23;;;;;;;29.40;16.30;;;4.00;99.90;;;;;;4983045;28;20799;-79
2022/03/02 07:03:04;;;;;;;28.10;16.27;;;4.10;99.90;;;;;;4948711;28;20037;-79
2022/03/02 07:05:34;;;;;;;24.33;14.03;;;4.20;99.90;;;;;;4985615;28;20471;-79
2022/03/02 07:08:03;;;;;;;24.47;14.23;;;4.20;99.90;;;;;;4984232;28;20030;-79
2022/03/02 07:10:34;;;;;;;26.47;15.63;;;4.30;99.90;;;;;;4985452;28;20026;-79
2022/03/02 07:13:05;;;;;;;26.05;15.27;;;4.50;99.90;;;;;;4968653;28;20038;-79
2022/03/02 07:15:35;;;;;;;30.63;18.33;;;4.50;99.90;;;;;;4970787;28;20022;-78
2022/03/02 07:18:04;;;;;;;30.33;17.50;;;4.60;99.90;;;;;;4983567;28;20042;-79
2022/03/02 07:20:38;;;;;;;28.60;17.07;;;4.60;99.90;;;;;;4955478;28;20023;-79
2022/03/02 07:23:11;;;;;;;25.23;16.15;;;4.70;99.90;;;;;;4990906;28;20350;-79
2022/03/02 07:25:40;;;;;;;26.27;15.03;;;4.80;99.90;;;;;;4992578;28;20044;-79
2022/03/02 07:28:10;;;;;;;36.00;18.60;;;4.90;99.90;;;;;;4990732;28;20140;-79
2022/03/02 07:30:38;;;;;;;26.63;16.57;;;5.00;99.90;;;;;;4977736;28;20866;-79
2022/03/02 07:33:05;;;;;;;26.13;15.20;;;5.10;99.90;;;;;;4944132;28;20493;-79
2022/03/02 07:35:35;;;;;;;27.20;16.20;;;5.20;99.90;;;;;;4958031;28;20034;-79
2022/03/02 07:38:06;;;;;;;24.97;16.10;;;5.30;99.90;;;;;;4986539;28;20033;-79
2022/03/02 07:40:33;;;;;;;26.13;17.00;;;5.40;99.90;;;;;;4973181;28;20032;-79
2022/03/02 07:43:00;;;;;;;25.67;16.23;;;5.50;99.70;;;;;;4990977;28;20473;-80
2022/03/02 07:45:28;;;;;;;27.73;17.83;;;5.50;99.50;;;;;;4973475;28;20042;-79
2022/03/02 07:47:56;;;;;;;29.50;18.60;;;5.60;99.30;;;;;;4987137;28;20484;-80
2022/03/02 07:50:24;;;;;;;30.83;18.10;;;5.70;98.90;;;;;;4975665;28;20049;-80
2022/03/02 07:52:52;;;;;;;29.23;16.37;;;5.80;98.70;;;;;;4971004;28;20037;-80
2022/03/02 07:55:19;;;;;;;26.83;16.80;;;5.90;98.50;;;;;;4973270;28;20061;-80
2022/03/02 07:57:53;;;;;;;29.33;17.80;;;5.90;98.20;;;;;;4971729;28;20042;-80
2022/03/02 08:00:19;;;;;;;31.83;18.13;;;6.10;98.10;;;;;;4960232;28;20029;-80
2022/03/02 08:02:47;;;;;;;23.73;14.50;;;6.20;97.80;;;;;;4943491;28;20047;-79
2022/03/02 08:05:13;;;;;;;26.13;16.37;;;6.30;97.50;;;;;;4973121;28;20034;-80
2022/03/02 08:07:40;;;;;;;24.13;15.23;;;6.40;97.10;;;;;;4942562;28;20026;-79
2022/03/02 08:10:07;;;;;;;26.33;17.70;;;6.40;97.00;;;;;;4960668;28;20580;-78
2022/03/02 08:12:34;;;;;;;26.42;16.73;;;6.60;96.60;;;;;;4941915;28;20054;-81
2022/03/02 08:15:03;;;;;;;29.00;17.10;;;6.60;96.30;;;;;;4970350;28;20042;-81
2022/03/02 08:17:29;;;;;;;26.70;15.93;;;6.60;95.60;;;;;;4983893;28;20026;-79
2022/03/02 08:19:56;;;;;;;23.90;15.55;;;6.70;95.60;;;;;;4970926;28;20084;-79
2022/03/02 08:22:24;;;;;;;28.95;16.73;;;6.70;95.40;;;;;;4960835;28;20038;-79
2022/03/02 08:24:56;;;;;;;25.05;16.10;;;6.80;94.30;;;;;;4958400;28;20389;-79
2022/03/02 08:27:22;;;;;;;22.75;13.73;;;6.80;93.90;;;;;;4959624;28;20391;-79
2022/03/02 08:29:56;;;;;;;26.10;15.20;;;6.90;93.90;;;;;;4968675;28;20501;-79
2022/03/02 08:32:24;;;;;;;30.80;18.23;;;7.00;93.60;;;;;;4954884;28;20374;-79
2022/03/02 08:34:52;;;;;;;24.27;14.93;;;7.00;92.90;;;;;;4942884;28;20462;-79
2022/03/02 08:37:19;;;;;;;26.85;15.38;;;7.10;93.30;;;;;;4986145;28;20041;-79
2022/03/02 08:39:48;;;;;;;27.98;15.82;;;7.20;92.30;;;;;;4973657;28;20034;-79
2022/03/02 08:42:15;;;;;;;41.42;24.65;;;7.30;91.80;;;;;;4971617;28;20041;-79
2022/03/02 08:44:44;;;;;;;29.33;16.58;;;7.40;91.40;;;;;;4986634;28;20030;-80
2022/03/02 08:47:10;;;;;;;27.10;16.40;;;7.40;91.10;;;;;;4954650;28;20035;-80
2022/03/02 08:49:37;;;;;;;26.10;15.77;;;7.60;91.10;;;;;;4956800;28;20049;-79
2022/03/02 08:52:04;;;;;;;27.73;16.33;;;7.60;90.40;;;;;;4957921;28;20030;-79
2022/03/02 08:54:38;;;;;;;23.45;14.70;;;7.70;90.20;;;;;;4970712;28;20054;-79
2022/03/02 08:57:05;;;;;;;22.70;15.23;;;7.80;89.50;;;;;;4957356;28;20688;-80
2022/03/02 08:59:34;;;;;;;27.40;15.93;;;7.80;88.90;;;;;;4953292;28;20034;-78
2022/03/02 09:02:03;;;;;;;22.55;14.80;;;7.90;88.20;;;;;;4986601;28;20047;-79
2022/03/02 09:04:32;;;;;;;24.30;15.57;;;8.00;87.80;;;;;;4953925;28;20494;-79
2022/03/02 09:07:01;;;;;;;22.70;14.80;;;8.00;87.80;;;;;;4972801;28;20034;-78
2022/03/02 09:09:27;;;;;;;23.52;13.75;;;8.10;87.30;;;;;;4944231;28;20496;-79
2022/03/02 09:11:55;;;;;;;24.33;16.33;;;8.20;87.30;;;;;;4974609;28;20034;-79
2022/03/02 09:14:22;;;;;;;26.85;16.02;;;8.20;86.00;;;;;;4959071;28;20461;-79
2022/03/02 09:16:49;;;;;;;24.48;15.60;;;8.30;86.10;;;;;;4974141;28;20049;-79
2022/03/02 09:19:16;;;;;;;24.38;15.15;;;8.40;86.30;;;;;;4952911;28;20049;-79
2022/03/02 09:21:45;;;;;;;29.63;15.85;;;8.40;85.70;;;;;;4971080;28;20117;-79
2022/03/02 09:24:11;;;;;;;24.90;16.40;;;8.50;85.50;;;;;;4959244;28;20042;-79
2022/03/02 09:26:39;;;;;;;24.33;15.85;;;8.60;85.10;;;;;;4957674;28;20033;-79
2022/03/02 09:29:06;;;;;;;22.42;14.60;;;8.60;84.30;;;;;;4984662;28;20030;-78
2022/03/02 09:31:36;;;;;;;21.58;13.57;;;8.70;84.30;;;;;;4940260;28;20042;-79
2022/03/02 09:34:09;;;;;;;26.67;16.48;;;8.80;84.60;;;;;;4939865;28;20042;-79
2022/03/02 09:36:37;;;;;;;26.45;16.73;;;8.90;84.50;;;;;;4974041;28;20030;-78
2022/03/02 09:39:09;;;;;;;25.10;15.75;;;9.00;83.00;;;;;;4965317;28;20049;-79
2022/03/02 09:41:49;;;;;;;23.77;15.60;;;9.10;82.70;;;;;;4972925;28;20014;-78
2022/03/02 09:44:20;;;;;;;25.52;15.85;;;9.20;82.20;;;;;;4955597;28;20114;-79
2022/03/02 09:46:56;;;;;;;23.05;15.02;;;9.20;81.10;;;;;;4990204;28;20038;-80
2022/03/02 09:49:34;;;;;;;22.98;15.35;;;9.30;81.10;;;;;;4986188;28;20578;-82
2022/03/02 09:52:34;;;;;;;21.90;13.80;;;9.40;80.60;;;;;;4989113;28;20045;-80
2022/03/02 09:55:08;;;;;;;22.02;15.43;;;9.50;80.30;;;;;;4956304;28;20042;-83
2022/03/02 09:57:42;;;;;;;21.92;14.75;;;9.50;79.20;;;;;;4971462;28;20034;-82
2022/03/02 10:00:12;;;;;;;23.98;14.93;;;9.60;79.10;;;;;;4956610;28;20390;-81
2022/03/02 10:02:52;;;;;;;23.48;14.25;;;9.60;79.00;;;;;;4967176;28;20050;-82
2022/03/02 10:05:39;;;;;;;20.77;14.13;;;9.70;79.70;;;;;;4989494;28;20026;-81
2022/03/02 10:08:14;;;;;;;24.27;16.60;;;9.80;79.00;;;;;;4972366;28;20470;-81
2022/03/02 10:10:49;;;;;;;25.02;15.30;;;9.80;77.90;;;;;;4973313;28;20030;-80
2022/03/02 10:13:19;;;;;;;20.92;14.02;;;9.80;79.20;;;;;;4966587;28;20030;-79
2022/03/02 10:15:55;;;;;;;25.58;15.43;;;9.90;80.10;;;;;;4955088;28;20392;-80
2022/03/02 10:18:27;;;;;;;20.95;14.35;;;10.10;79.40;;;;;;4969545;28;20331;-78
2022/03/02 10:21:19;;;;;;;23.50;14.88;;;10.20;79.70;;;;;;4956372;28;20043;-79
2022/03/02 10:23:48;;;;;;;24.98;16.17;;;10.40;80.20;;;;;;4967619;28;20045;-79
2022/03/02 10:26:50;;;;;;;22.02;15.60;;;10.50;77.70;;;;;;4954990;28;20045;-78
2022/03/02 10:29:45;;;;;;;;;;;10.60;78.50;;;;;;4973321;28;20399;-79
2022/03/02 10:32:17;;;;;;;23.98;15.80;;;10.80;77.20;;;;;;4988214;28;19913;-79
2022/03/02 10:34:57;;;;;;;24.35;17.08;;;10.90;77.20;;;;;;4983869;28;20029;-79
2022/03/02 10:37:36;;;;;;;22.60;16.77;;;11.10;76.90;;;;;;4970617;28;20030;-79
2022/03/02 10:40:15;;;;;;;23.65;16.27;;;11.40;76.40;;;;;;4952703;28;20045;-79
2022/03/02 10:42:45;;;;;;;23.90;15.88;;;11.70;76.10;;;;;;4972840;28;20038;-79
2022/03/02 10:45:24;;;;;;;21.42;15.02;;;12.00;76.70;;;;;;4971840;28;20371;-79
2022/03/02 10:48:09;;;;;;;21.40;15.95;;;12.40;76.50;;;;;;4954393;28;20030;-80
2022/03/02 10:50:38;;;;;;;24.15;16.42;;;12.80;73.20;;;;;;4942655;28;20127;-80
2022/03/02 10:53:08;;;;;;;21.15;15.85;;;13.00;72.20;;;;;;4970477;28;20468;-79
2022/03/02 10:55:35;;;;;;;18.23;14.48;;;13.30;71.80;;;;;;4956819;28;20053;-79
2022/03/02 10:58:04;;;;;;;22.30;16.95;;;13.50;71.70;;;;;;4971661;28;20500;-80
2022/03/02 11:00:32;;;;;;;19.95;15.73;;;13.70;70.90;;;;;;4960327;28;20505;-80
2022/03/02 11:02:59;;;;;;;20.88;16.08;;;14.00;69.80;;;;;;4958122;28;20022;-80
2022/03/02 11:05:29;;;;;;;21.65;15.82;;;14.30;68.90;;;;;;4958459;28;20081;-80
2022/03/02 11:07:56;;;;;;;19.50;14.50;;;14.50;68.20;;;;;;4974549;28;20111;-80
2022/03/02 11:10:33;;;;;;;19.27;14.80;;;14.80;66.50;;;;;;4961234;28;20041;-80
2022/03/02 11:13:02;;;;;;;20.98;15.30;;;14.90;64.60;;;;;;4976795;28;20018;-80
2022/03/02 11:15:47;;;;;;;19.10;15.32;;;15.00;63.60;;;;;;4977189;28;20490;-80
2022/03/02 11:18:16;;;;;;;19.02;14.35;;;15.20;63.60;;;;;;4971934;28;20034;-80
2022/03/02 11:21:17;;;;;;;18.35;13.93;;;15.30;62.30;;;;;;4974816;28;20496;-80
2022/03/02 11:23:44;;;;;;;18.73;14.18;;;15.40;59.70;;;;;;4951991;28;20050;-80
2022/03/02 11:26:14;;;;;;;19.23;13.10;;;15.40;60.60;;;;;;4988612;28;20482;-80
2022/03/02 11:28:51;;;;;;;17.73;14.20;;;15.60;58.50;;;;;;4968377;28;20030;-81
2022/03/02 11:31:38;;;;;;;18.88;14.40;;;15.80;58.20;;;;;;4991781;28;20085;-80
2022/03/02 11:34:19;;;;;;;18.85;12.90;;;16.00;56.10;;;;;;4974390;28;20038;-78
2022/03/02 11:36:52;;;;;;;16.38;12.30;;;16.10;56.30;;;;;;4987417;28;20033;-78
2022/03/02 11:39:24;;;;;;;16.73;13.57;;;16.10;55.80;;;;;;4985679;28;20022;-79
2022/03/02 11:41:53;;;;;;;17.02;13.25;;;16.30;53.80;;;;;;4972268;28;20018;-78
2022/03/02 11:44:35;;;;;;;15.75;13.05;;;16.40;53.90;;;;;;4958751;28;20508;-78
2022/03/02 11:47:06;;;;;;;16.00;12.93;;;16.30;54.40;;;;;;4990329;28;20018;-79
2022/03/02 11:49:42;;;;;;;15.90;13.05;;;16.00;53.20;;;;;;4959815;28;20052;-78
2022/03/02 11:52:18;;;;;;;15.23;12.93;;;15.40;52.20;;;;;;4973160;28;20034;-79
2022/03/02 11:54:46;;;;;;;16.15;12.73;;;14.90;52.90;;;;;;4974607;28;20042;-79
2022/03/02 11:57:16;;;;;;;18.05;13.18;;;14.70;53.70;;;;;;4974925;28;20030;-78
2022/03/02 11:59:43;;;;;;;16.70;11.75;;;14.60;53.80;;;;;;4972706;28;20033;-78
2022/03/02 12:02:16;;;;;;;17.98;15.05;;;14.40;53.40;;;;;;4991747;28;20034;-78
2022/03/02 12:05:04;;;;;;;17.13;12.18;;;14.20;53.00;;;;;;4972310;28;20061;-78
2022/03/02 12:07:39;;;;;;;17.15;12.73;;;14.30;54.20;;;;;;4963332;28;20027;-78
2022/03/02 12:10:25;;;;;;;19.05;14.10;;;14.70;53.70;;;;;;4960862;28;20022;-78
2022/03/02 12:12:53;;;;;;;15.95;13.10;;;15.20;53.10;;;;;;4992891;28;20022;-78
2022/03/02 12:15:21;;;;;;;23.38;20.75;;;15.60;52.90;;;;;;4976114;28;20041;-78
2022/03/02 12:17:52;;;;;;;17.30;13.90;;;16.00;52.90;;;;;;4972517;28;20018;-79
2022/03/02 12:20:22;;;;;;;17.90;13.68;;;16.50;52.50;;;;;;4960215;28;20497;-79
2022/03/02 12:22:50;;;;;;;14.52;12.40;;;17.10;51.60;;;;;;4972724;28;20022;-78
2022/03/02 12:25:20;;;;;;;15.18;11.57;;;17.50;50.50;;;;;;4957134;28;20509;-77
2022/03/02 12:28:08;;;;;;;15.25;12.32;;;17.80;50.00;;;;;;4941412;28;20042;-79
2022/03/02 12:30:36;;;;;;;19.65;12.63;;;18.20;49.70;;;;;;4970180;28;20046;-78
2022/03/02 12:33:08;;;;;;;15.77;13.60;;;18.70;49.40;;;;;;4975280;28;20022;-77
2022/03/02 12:35:40;;;;;;;14.68;12.23;;;18.90;48.00;;;;;;4990537;28;20034;-79
2022/03/02 12:38:11;;;;;;;15.15;12.95;;;19.10;47.10;;;;;;4969625;28;20058;-79
2022/03/02 12:40:46;;;;;;;14.48;12.45;;;19.30;47.00;;;;;;4968082;28;20038;-80
2022/03/02 12:43:22;;;;;;;15.88;12.15;;;19.50;46.10;;;;;;4982834;28;20355;-79
2022/03/02 12:45:53;;;;;;;14.82;10.88;;;19.70;45.40;;;;;;4974317;28;20057;-80
2022/03/02 12:48:26;;;;;;;12.63;10.40;;;19.70;44.60;;;;;;4988327;28;20042;-79
2022/03/02 12:50:56;;;;;;;13.27;10.75;;;19.90;43.70;;;;;;4958321;28;20031;-79